createdAt,value
2023-05-22T00:00:47.493Z,35.63
2023-05-22T00:01:48.418Z,33.85
2023-05-22T00:02:47.788Z,37.51
2023-05-22T00:03:48.635Z,36.66
2023-05-22T00:04:47.728Z,35.43
2023-05-22T00:05:47.624Z,34.64
2023-05-22T00:06:48.654Z,34.29
2023-05-22T00:07:48.697Z,33.83
2023-05-22T00:08:47.930Z,35.62
2023-05-22T00:09:48.777Z,36.53
2023-05-22T00:10:48.821Z,36.25
2023-05-22T00:11:47.881Z,35.41
2023-05-22T00:12:48.926Z,36.28
2023-05-22T00:13:47.867Z,35.36
2023-05-22T00:14:49.058Z,36.24
2023-05-22T00:15:47.994Z,33.83
2023-05-22T00:16:47.983Z,34.88
2023-05-22T00:17:48.008Z,31.28
2023-05-22T00:18:48.880Z,35.52
2023-05-22T00:19:48.073Z,36.40
2023-05-22T00:20:47.960Z,37.96
2023-05-22T00:21:48.898Z,37.50
2023-05-22T00:22:47.911Z,36.92
2023-05-22T00:23:48.042Z,36.44
2023-05-22T00:24:48.054Z,35.89
2023-05-22T00:25:49.072Z,34.40
2023-05-22T00:26:48.238Z,39.13
2023-05-22T00:27:48.062Z,35.83
2023-05-22T00:28:49.300Z,36.08
2023-05-22T00:29:49.160Z,35.56
2023-05-22T00:30:48.141Z,33.85
2023-05-22T00:31:49.049Z,36.40
2023-05-22T00:32:49.331Z,35.39
2023-05-22T00:33:48.251Z,35.86
2023-05-22T00:34:48.074Z,35.78
2023-05-22T00:35:48.197Z,35.25
2023-05-22T00:36:48.243Z,33.74
2023-05-22T00:37:49.072Z,37.08
2023-05-22T00:38:48.298Z,37.72
2023-05-22T00:39:48.122Z,35.43
2023-05-22T00:40:49.225Z,35.97
2023-05-22T00:41:48.032Z,37.85
2023-05-22T00:42:49.042Z,37.21
2023-05-22T00:43:49.030Z,37.38
2023-05-22T00:44:49.163Z,36.02
2023-05-22T00:45:49.032Z,37.05
2023-05-22T00:46:48.185Z,37.72
2023-05-22T00:47:49.037Z,33.11
2023-05-22T00:48:48.012Z,34.61
2023-05-22T00:49:49.347Z,39.04
2023-05-22T00:50:48.113Z,34.04
2023-05-22T00:51:49.247Z,37.27
2023-05-22T00:52:48.232Z,36.05
2023-05-22T00:53:48.064Z,35.74
2023-05-22T00:54:48.428Z,39.38
2023-05-22T00:55:49.178Z,36.36
2023-05-22T00:56:48.299Z,35.89
2023-05-22T00:57:49.386Z,35.01
2023-05-22T00:58:49.178Z,35.49
2023-05-22T00:59:49.256Z,35.14
2023-05-22T01:00:49.213Z,35.38
2023-05-22T01:01:48.311Z,36.68
2023-05-22T01:02:48.352Z,35.16
2023-05-22T01:03:48.576Z,38.26
2023-05-22T01:04:49.473Z,35.60
2023-05-22T01:05:49.518Z,35.73
2023-05-22T01:06:49.533Z,35.99
2023-05-22T01:07:48.570Z,36.83
2023-05-22T01:08:48.552Z,34.77
2023-05-22T01:09:49.749Z,34.43
2023-05-22T01:10:49.640Z,35.92
2023-05-22T01:11:48.690Z,37.50
2023-05-22T01:12:48.678Z,34.72
2023-05-22T01:13:49.571Z,34.96
2023-05-22T01:14:48.639Z,37.16
2023-05-22T01:15:48.689Z,35.54
2023-05-22T01:16:49.933Z,35.33
2023-05-22T01:17:48.863Z,33.67
2023-05-22T01:18:49.777Z,33.91
2023-05-22T01:19:49.450Z,36.39
2023-05-22T01:20:48.946Z,37.87
2023-05-22T01:21:48.815Z,38.66
2023-05-22T01:22:48.862Z,37.29
2023-05-22T01:23:48.976Z,35.35
2023-05-22T01:24:49.895Z,35.57
2023-05-22T01:25:49.020Z,31.76
2023-05-22T01:26:49.133Z,37.48
2023-05-22T01:27:48.889Z,35.95
2023-05-22T01:28:48.949Z,36.47
2023-05-22T01:29:49.036Z,37.09
2023-05-22T01:30:49.074Z,36.73
2023-05-22T01:31:49.850Z,34.81
2023-05-22T01:32:49.965Z,35.13
2023-05-22T01:33:49.002Z,33.56
2023-05-22T01:34:48.961Z,36.83
2023-05-22T01:35:49.853Z,35.43
2023-05-22T01:36:50.042Z,35.62
2023-05-22T01:37:50.022Z,33.89
2023-05-22T01:38:48.992Z,34.22
2023-05-22T01:39:48.842Z,36.73
2023-05-22T01:40:49.826Z,36.86
2023-05-22T01:41:49.072Z,37.63
2023-05-22T01:42:49.810Z,33.56
2023-05-22T01:43:49.810Z,36.75
2023-05-22T01:44:48.877Z,39.07
2023-05-22T01:45:49.063Z,34.55
2023-05-22T01:46:49.816Z,35.80
2023-05-22T01:47:48.922Z,38.83
2023-05-22T01:48:48.959Z,37.16
2023-05-22T01:49:48.934Z,35.99
2023-05-22T01:50:49.966Z,34.42
2023-05-22T01:51:49.796Z,34.95
2023-05-22T01:52:48.934Z,34.29
2023-05-22T01:53:49.016Z,36.71
2023-05-22T01:54:50.033Z,35.82
2023-05-22T01:55:48.936Z,40.45
2023-05-22T01:56:48.843Z,38.63
2023-05-22T01:57:49.039Z,36.78
2023-05-22T01:58:48.982Z,35.89
2023-05-22T01:59:50.059Z,40.35
2023-05-22T02:00:49.897Z,35.12
2023-05-22T02:01:49.927Z,37.21
2023-05-22T02:02:48.954Z,35.17
2023-05-22T02:03:48.824Z,37.83
2023-05-22T02:04:48.861Z,38.33
2023-05-22T02:05:48.817Z,36.18
2023-05-22T02:06:49.804Z,38.32
2023-05-22T02:07:49.807Z,39.52
2023-05-22T02:08:49.822Z,34.62
2023-05-22T02:09:49.803Z,35.51
2023-05-22T02:10:49.805Z,37.04
2023-05-22T02:11:48.826Z,34.51
2023-05-22T02:12:48.786Z,39.90
2023-05-22T02:13:49.779Z,40.81
2023-05-22T02:14:48.805Z,34.72
2023-05-22T02:15:49.872Z,37.08
2023-05-22T02:16:49.195Z,34.36
2023-05-22T02:17:48.845Z,39.82
2023-05-22T02:18:48.799Z,37.97
2023-05-22T02:19:48.789Z,37.14
2023-05-22T02:20:49.791Z,37.04
2023-05-22T02:21:49.775Z,37.70
2023-05-22T02:22:48.795Z,37.88
2023-05-22T02:23:49.794Z,37.24
2023-05-22T02:24:49.773Z,35.19
2023-05-22T02:25:48.772Z,37.18
2023-05-22T02:26:49.764Z,37.26
2023-05-22T02:27:48.839Z,37.35
2023-05-22T02:28:49.746Z,35.60
2023-05-22T02:29:49.781Z,37.67
2023-05-22T02:30:49.776Z,37.60
2023-05-22T02:31:49.779Z,38.62
2023-05-22T02:32:49.781Z,36.17
2023-05-22T02:33:48.751Z,37.50
2023-05-22T02:34:48.733Z,36.70
2023-05-22T02:35:49.769Z,36.41
2023-05-22T02:36:49.756Z,37.60
2023-05-22T02:37:49.751Z,34.81
2023-05-22T02:38:49.773Z,38.55
2023-05-22T02:39:49.833Z,37.67
2023-05-22T02:40:48.834Z,35.79
2023-05-22T02:41:48.866Z,36.94
2023-05-22T02:42:49.895Z,38.41
2023-05-22T02:43:50.037Z,34.82
2023-05-22T02:44:49.975Z,34.35
2023-05-22T02:45:49.987Z,39.31
2023-05-22T02:46:49.065Z,37.29
2023-05-22T02:47:50.114Z,36.20
2023-05-22T02:48:49.098Z,33.45
2023-05-22T02:49:50.166Z,41.08
2023-05-22T02:50:50.198Z,36.70
2023-05-22T02:51:50.208Z,36.67
2023-05-22T02:52:49.276Z,38.16
2023-05-22T02:53:49.336Z,36.27
2023-05-22T02:54:49.376Z,37.16
2023-05-22T02:55:50.437Z,37.95
2023-05-22T02:56:49.448Z,33.91
2023-05-22T02:57:50.499Z,35.34
2023-05-22T02:58:49.538Z,37.91
2023-05-22T02:59:50.594Z,37.71
2023-05-22T03:00:49.592Z,36.07
2023-05-22T03:01:49.640Z,37.04
2023-05-22T03:02:49.798Z,39.52
2023-05-22T03:03:50.884Z,35.27
2023-05-22T03:04:49.739Z,36.65
2023-05-22T03:05:49.756Z,33.82
2023-05-22T03:06:50.787Z,34.54
2023-05-22T03:07:50.840Z,40.27
2023-05-22T03:08:49.875Z,34.34
2023-05-22T03:09:50.904Z,34.81
2023-05-22T03:10:50.953Z,34.57
2023-05-22T03:11:50.969Z,35.45
2023-05-22T03:12:51.004Z,35.79
2023-05-22T03:13:51.031Z,35.92
2023-05-22T03:14:51.105Z,36.78
2023-05-22T03:15:51.189Z,37.66
2023-05-22T03:16:51.215Z,36.90
2023-05-22T03:17:51.205Z,35.49
2023-05-22T03:18:50.198Z,34.36
2023-05-22T03:19:51.188Z,36.14
2023-05-22T03:20:51.178Z,38.61
2023-05-22T03:21:51.169Z,32.96
2023-05-22T03:22:50.182Z,36.60
2023-05-22T03:23:51.170Z,37.58
2023-05-22T03:24:50.177Z,33.96
2023-05-22T03:25:51.179Z,36.50
2023-05-22T03:26:51.182Z,34.40
2023-05-22T03:27:50.187Z,38.75
2023-05-22T03:28:50.208Z,34.78
2023-05-22T03:29:51.204Z,35.83
2023-05-22T03:30:50.214Z,38.11
2023-05-22T03:31:51.319Z,35.06
2023-05-22T03:32:51.291Z,33.27
2023-05-22T03:33:51.310Z,35.20
2023-05-22T03:34:51.276Z,36.40
2023-05-22T03:35:50.282Z,41.24
2023-05-22T03:36:51.292Z,40.11
2023-05-22T03:37:50.305Z,34.68
2023-05-22T03:38:50.349Z,33.63
2023-05-22T03:39:50.352Z,35.68
2023-05-22T03:40:51.369Z,35.34
2023-05-22T03:41:50.400Z,31.84
2023-05-22T03:42:51.424Z,34.16
2023-05-22T03:43:51.438Z,33.73
2023-05-22T03:44:50.452Z,37.47
2023-05-22T03:45:50.534Z,36.52
2023-05-22T03:46:50.463Z,39.37
2023-05-22T03:47:50.589Z,37.12
2023-05-22T03:48:50.487Z,34.25
2023-05-22T03:49:50.505Z,36.75
2023-05-22T03:50:51.497Z,37.58
2023-05-22T03:51:50.516Z,35.10
2023-05-22T03:52:51.489Z,38.02
2023-05-22T03:53:50.516Z,35.22
2023-05-22T03:54:50.521Z,36.80
2023-05-22T03:55:50.567Z,36.62
2023-05-22T03:56:50.588Z,39.86
2023-05-22T03:57:51.590Z,36.11
2023-05-22T03:58:51.602Z,39.89
2023-05-22T03:59:50.593Z,36.39
2023-05-22T04:00:51.602Z,37.27
2023-05-22T04:01:50.598Z,34.65
2023-05-22T04:02:51.765Z,39.45
2023-05-22T04:03:51.642Z,37.36
2023-05-22T04:04:51.655Z,35.41
2023-05-22T04:05:51.649Z,36.25
2023-05-22T04:06:50.681Z,34.99
2023-05-22T04:07:51.706Z,38.80
2023-05-22T04:08:50.720Z,39.28
2023-05-22T04:09:51.725Z,36.87
2023-05-22T04:10:51.760Z,35.74
2023-05-22T04:11:50.764Z,36.29
2023-05-22T04:12:51.782Z,35.33
2023-05-22T04:13:51.789Z,37.25
2023-05-22T04:14:51.786Z,35.09
2023-05-22T04:15:50.796Z,37.38
2023-05-22T04:16:51.801Z,37.52
2023-05-22T04:17:50.803Z,34.77
2023-05-22T04:18:51.816Z,35.30
2023-05-22T04:19:51.826Z,36.00
2023-05-22T04:20:50.811Z,35.61
2023-05-22T04:21:52.070Z,35.83
2023-05-22T04:22:51.808Z,37.13
2023-05-22T04:23:51.807Z,35.98
2023-05-22T04:24:51.814Z,36.49
2023-05-22T04:25:51.884Z,39.36
2023-05-22T04:26:51.864Z,40.91
2023-05-22T04:27:51.898Z,36.51
2023-05-22T04:28:51.916Z,36.60
2023-05-22T04:29:51.929Z,38.04
2023-05-22T04:30:51.020Z,40.02
2023-05-22T04:31:50.992Z,40.17
2023-05-22T04:32:52.054Z,39.66
2023-05-22T04:33:52.062Z,35.76
2023-05-22T04:34:51.159Z,36.64
2023-05-22T04:35:51.120Z,36.26
2023-05-22T04:36:51.113Z,37.73
2023-05-22T04:37:52.151Z,35.62
2023-05-22T04:38:52.155Z,38.54
2023-05-22T04:39:52.171Z,38.06
2023-05-22T04:40:52.177Z,38.40
2023-05-22T04:41:52.195Z,36.11
2023-05-22T04:42:51.194Z,33.76
2023-05-22T04:43:52.215Z,37.52
2023-05-22T04:44:52.248Z,38.24
2023-05-22T04:45:52.258Z,36.27
2023-05-22T04:46:52.321Z,39.20
2023-05-22T04:47:52.310Z,35.92
2023-05-22T04:48:52.318Z,37.83
2023-05-22T04:49:51.328Z,37.52
2023-05-22T04:50:51.359Z,36.62
2023-05-22T04:51:51.377Z,36.65
2023-05-22T04:52:51.374Z,38.51
2023-05-22T04:53:52.360Z,37.41
2023-05-22T04:54:52.373Z,37.83
2023-05-22T04:55:52.397Z,34.70
2023-05-22T04:56:51.373Z,37.00
2023-05-22T04:57:52.369Z,36.22
2023-05-22T04:58:51.377Z,38.02
2023-05-22T04:59:51.371Z,34.69
2023-05-22T05:00:51.375Z,35.53
2023-05-22T05:01:52.395Z,35.79
2023-05-22T05:02:52.457Z,34.65
2023-05-22T05:03:52.497Z,36.29
2023-05-22T05:04:52.454Z,38.40
2023-05-22T05:05:51.498Z,35.95
2023-05-22T05:06:51.945Z,35.93
2023-05-22T05:07:51.672Z,35.85
2023-05-22T05:08:52.548Z,35.19
2023-05-22T05:09:51.618Z,35.72
2023-05-22T05:10:52.597Z,36.35
2023-05-22T05:11:51.587Z,33.85
2023-05-22T05:12:51.590Z,35.03
2023-05-22T05:13:52.649Z,36.16
2023-05-22T05:14:52.643Z,36.73
2023-05-22T05:15:51.696Z,35.11
2023-05-22T05:16:52.953Z,33.61
2023-05-22T05:17:51.870Z,32.94
2023-05-22T05:18:52.948Z,35.13
2023-05-22T05:19:51.947Z,37.42
2023-05-22T05:20:52.994Z,36.82
2023-05-22T05:21:53.072Z,34.77
2023-05-22T05:22:53.153Z,34.01
2023-05-22T05:23:53.307Z,33.55
2023-05-22T05:24:53.240Z,36.21
2023-05-22T05:25:52.284Z,33.96
2023-05-22T05:26:52.377Z,35.12
2023-05-22T05:27:53.407Z,33.13
2023-05-22T05:28:53.432Z,34.46
2023-05-22T05:29:53.592Z,34.45
2023-05-22T05:30:53.018Z,35.96
2023-05-22T05:31:53.789Z,35.03
2023-05-22T05:32:53.673Z,34.64
2023-05-22T05:33:52.829Z,33.94
2023-05-22T05:34:53.756Z,35.89
2023-05-22T05:35:59.813Z,36.76
2023-05-22T05:36:53.790Z,37.03
2023-05-22T05:37:53.752Z,36.96
2023-05-22T05:38:53.771Z,37.08
2023-05-22T05:39:52.777Z,38.04
2023-05-22T05:40:53.745Z,37.98
2023-05-22T05:41:52.742Z,38.79
2023-05-22T05:42:53.722Z,37.99
2023-05-22T05:43:52.727Z,38.19
2023-05-22T05:48:53.695Z,39.90
2023-05-22T05:49:52.704Z,41.63
2023-05-22T05:50:53.690Z,43.30
2023-05-22T05:51:53.682Z,44.06
2023-05-22T05:52:53.683Z,42.71
2023-05-22T05:53:53.659Z,45.20
2023-05-22T05:54:53.669Z,49.20
2023-05-22T05:55:53.681Z,46.73
2023-05-22T05:56:52.675Z,64.34
2023-05-22T05:57:53.684Z,78.27
2023-05-22T05:58:53.625Z,74.73
2023-05-22T05:59:53.618Z,71.68
2023-05-22T06:00:53.617Z,76.78
2023-05-22T06:01:53.999Z,79.79
2023-05-22T06:02:53.682Z,78.24
2023-05-22T06:03:53.779Z,80.25
2023-05-22T06:04:53.594Z,87.47
2023-05-22T06:05:52.650Z,90.71
2023-05-22T06:06:53.578Z,94.29
2023-05-22T06:07:52.567Z,94.51
2023-05-22T06:08:52.579Z,97.58
2023-05-22T06:09:53.557Z,99.18
2023-05-22T06:10:52.597Z,102.00
2023-05-22T06:11:53.581Z,105.86
2023-05-22T06:12:53.535Z,114.86
2023-05-22T06:13:53.553Z,117.86
2023-05-22T06:14:53.523Z,124.20
2023-05-22T06:15:53.565Z,135.98
2023-05-22T06:16:52.648Z,142.31
2023-05-22T06:17:52.727Z,142.60
2023-05-22T06:18:53.655Z,150.00
2023-05-22T06:19:53.636Z,151.35
2023-05-22T06:20:52.665Z,149.14
2023-05-22T06:21:52.653Z,156.27
2023-05-22T06:22:53.643Z,154.30
2023-05-22T06:23:53.686Z,157.16
2023-05-22T06:24:53.671Z,159.70
2023-05-22T06:25:52.639Z,163.32
2023-05-22T06:26:52.665Z,162.44
2023-05-22T06:27:53.665Z,167.18
2023-05-22T06:28:53.633Z,169.11
2023-05-22T06:29:52.637Z,170.23
2023-05-22T06:30:53.647Z,173.36
2023-05-22T06:31:53.698Z,175.32
2023-05-22T06:32:52.756Z,179.98
2023-05-22T06:33:52.731Z,179.73
2023-05-22T06:34:53.680Z,183.43
2023-05-22T06:35:53.685Z,188.27
2023-05-22T06:36:53.696Z,186.62
2023-05-22T06:37:52.677Z,191.34
2023-05-22T06:38:52.690Z,191.58
2023-05-22T06:39:52.689Z,193.35
2023-05-22T06:40:53.667Z,195.13
2023-05-22T06:41:53.692Z,197.13
2023-05-22T06:42:53.697Z,199.39
2023-05-22T06:43:53.855Z,201.72
2023-05-22T06:44:53.789Z,203.41
2023-05-22T06:45:52.877Z,203.78
2023-05-22T06:46:53.947Z,204.48
2023-05-22T06:47:54.045Z,206.82
2023-05-22T06:48:53.032Z,208.33
2023-05-22T06:49:53.078Z,209.75
2023-05-22T06:50:54.159Z,211.84
2023-05-22T06:51:53.317Z,215.31
2023-05-22T06:52:53.266Z,216.13
2023-05-22T06:53:53.322Z,218.06
2023-05-22T06:54:53.373Z,213.93
2023-05-22T06:55:54.457Z,221.21
2023-05-22T06:56:53.508Z,223.69
2023-05-22T06:57:53.539Z,225.45
2023-05-22T06:58:54.600Z,228.15
2023-05-22T06:59:54.691Z,231.12
2023-05-22T07:00:53.788Z,233.95
2023-05-22T07:01:54.776Z,231.67
2023-05-22T07:02:54.832Z,234.46
2023-05-22T07:03:54.854Z,237.61
2023-05-22T07:04:54.895Z,241.32
2023-05-22T07:05:54.981Z,246.46
2023-05-22T07:06:54.996Z,245.91
2023-05-22T07:07:54.029Z,244.97
2023-05-22T07:08:55.048Z,246.03
2023-05-22T07:09:55.123Z,249.86
2023-05-22T07:10:54.114Z,245.98
2023-05-22T07:11:55.154Z,250.00
2023-05-22T07:12:55.204Z,247.36
2023-05-22T07:13:54.256Z,250.00
2023-05-22T07:14:54.289Z,242.47
2023-05-22T07:15:55.364Z,247.28
2023-05-22T07:16:55.424Z,243.84
2023-05-22T07:17:55.416Z,241.93
2023-05-22T07:18:54.426Z,247.43
2023-05-22T07:19:55.409Z,248.65
2023-05-22T07:20:55.420Z,245.44
2023-05-22T07:21:55.437Z,246.05
2023-05-22T07:22:55.448Z,244.85
2023-05-22T07:23:55.448Z,249.37
2023-05-22T07:24:55.444Z,242.16
2023-05-22T07:25:55.465Z,242.35
2023-05-22T07:26:55.475Z,244.62
2023-05-22T07:27:55.486Z,244.22
2023-05-22T07:28:54.537Z,250.00
2023-05-22T07:29:54.516Z,245.08
2023-05-22T07:30:54.524Z,248.39
2023-05-22T07:31:54.622Z,248.24
2023-05-22T07:32:55.558Z,246.90
2023-05-22T07:33:55.524Z,249.63
2023-05-22T07:34:55.515Z,248.44
2023-05-22T07:35:55.585Z,248.76
2023-05-22T07:36:55.596Z,249.06
2023-05-22T07:37:55.670Z,249.39
2023-05-22T07:38:54.700Z,249.97
2023-05-22T07:39:55.723Z,248.30
2023-05-22T07:40:54.797Z,247.34
2023-05-22T07:41:57.226Z,244.58
2023-05-22T07:42:55.821Z,248.20
2023-05-22T07:43:54.803Z,247.77
2023-05-22T07:44:55.790Z,244.45
2023-05-22T07:45:55.846Z,243.70
2023-05-22T07:46:55.974Z,240.36
2023-05-22T07:47:56.419Z,244.48
2023-05-22T07:48:55.805Z,230.70
2023-05-22T07:49:55.752Z,194.84
2023-05-22T07:50:55.780Z,184.24
2023-05-22T07:51:56.526Z,178.88
2023-05-22T07:52:55.741Z,172.53
2023-05-22T07:53:54.723Z,167.49
2023-05-22T07:54:55.714Z,173.87
2023-05-22T07:55:55.722Z,180.67
2023-05-22T07:56:54.715Z,185.25
2023-05-22T07:57:55.701Z,185.85
2023-05-22T07:58:55.726Z,189.13
2023-05-22T07:59:55.703Z,188.71
2023-05-22T08:00:55.714Z,190.09
2023-05-22T08:01:56.029Z,192.06
2023-05-22T08:02:55.777Z,197.50
2023-05-22T08:03:55.040Z,198.48
2023-05-22T08:04:55.735Z,197.36
2023-05-22T08:05:54.657Z,196.78
2023-05-22T08:06:54.650Z,195.76
2023-05-22T08:07:54.674Z,194.02
2023-05-22T08:08:54.626Z,195.72
2023-05-22T08:09:55.618Z,197.59
2023-05-22T08:11:55.730Z,191.27
2023-05-22T08:12:55.602Z,193.69
2023-05-22T08:13:55.602Z,195.56
2023-05-22T08:14:54.576Z,199.59
2023-05-22T08:16:00.671Z,209.25
2023-05-22T08:16:55.636Z,191.47
2023-05-22T08:17:55.594Z,193.20
2023-05-22T08:18:55.591Z,196.24
2023-05-22T08:19:55.732Z,202.02
2023-05-22T08:20:55.559Z,204.61
2023-05-22T08:21:54.541Z,209.84
2023-05-22T08:22:55.533Z,211.52
2023-05-22T08:23:55.531Z,210.33
2023-05-22T08:24:55.517Z,210.18
2023-05-22T08:25:55.501Z,209.21
2023-05-22T08:26:55.521Z,205.31
2023-05-22T08:27:55.525Z,195.75
2023-05-22T08:28:55.491Z,194.96
2023-05-22T08:29:55.483Z,194.99
2023-05-22T08:30:55.482Z,203.58
2023-05-22T08:31:55.506Z,201.19
2023-05-22T08:32:55.480Z,200.94
2023-05-22T08:33:55.472Z,190.74
2023-05-22T08:34:55.453Z,193.22
2023-05-22T08:35:55.521Z,192.54
2023-05-22T08:36:55.459Z,194.27
2023-05-22T08:37:55.432Z,197.05
2023-05-22T08:38:54.426Z,191.86
2023-05-22T08:39:55.415Z,193.75
2023-05-22T08:40:54.429Z,187.89
2023-05-22T08:41:54.423Z,180.46
2023-05-22T08:42:55.545Z,182.18
2023-05-22T08:43:54.390Z,186.20
2023-05-22T08:44:55.386Z,185.52
2023-05-22T08:45:55.376Z,183.59
2023-05-22T08:46:55.462Z,181.35
2023-05-22T08:47:55.421Z,161.67
2023-05-22T08:48:54.792Z,154.10
2023-05-22T08:49:55.368Z,149.89
2023-05-22T08:50:55.444Z,144.06
2023-05-22T08:51:55.368Z,147.05
2023-05-22T08:52:55.375Z,144.78
2023-05-22T08:53:55.336Z,143.57
2023-05-22T08:54:55.329Z,134.67
2023-05-22T08:55:55.361Z,122.24
2023-05-22T08:56:57.190Z,110.13
2023-05-22T08:57:55.636Z,115.85
2023-05-22T08:58:55.311Z,111.51
2023-05-22T08:59:55.310Z,117.33
2023-05-22T09:00:55.324Z,118.82
2023-05-22T09:01:54.289Z,127.25
2023-05-22T09:02:55.394Z,119.83
2023-05-22T09:03:55.277Z,121.85
2023-05-22T09:04:54.272Z,123.92
2023-05-22T09:05:55.273Z,132.89
2023-05-22T09:06:55.455Z,129.89
2023-05-22T09:07:58.434Z,134.40
2023-05-22T09:08:55.245Z,135.05
2023-05-22T09:09:54.226Z,136.80
2023-05-22T09:10:54.234Z,143.00
2023-05-22T09:11:55.229Z,154.76
2023-05-22T09:12:54.241Z,161.71
2023-05-22T09:13:55.230Z,162.47
2023-05-22T09:14:55.361Z,166.76
2023-05-22T09:15:55.337Z,178.56
2023-05-22T09:16:54.229Z,172.40
2023-05-22T09:17:54.214Z,169.53
2023-05-22T09:18:55.201Z,162.56
2023-05-22T09:19:55.175Z,167.75
2023-05-22T09:20:55.214Z,169.77
2023-05-22T09:21:55.188Z,168.41
2023-05-22T09:22:54.170Z,167.79
2023-05-22T09:23:55.285Z,171.15
2023-05-22T09:24:55.164Z,167.32
2023-05-22T09:25:54.151Z,167.37
2023-05-22T09:26:55.132Z,166.84
2023-05-22T09:27:55.126Z,168.52
2023-05-22T09:28:55.141Z,163.52
2023-05-22T09:29:55.160Z,169.15
2023-05-22T09:30:55.142Z,166.05
2023-05-22T09:31:54.206Z,168.74
2023-05-22T09:32:55.254Z,164.74
2023-05-22T09:33:55.103Z,154.32
2023-05-22T09:34:55.082Z,164.13
2023-05-22T09:35:55.067Z,168.27
2023-05-22T09:36:54.069Z,161.25
2023-05-22T09:37:55.089Z,163.42
2023-05-22T09:38:55.059Z,175.70
2023-05-22T09:39:54.114Z,161.31
2023-05-22T09:40:56.071Z,171.80
2023-05-22T09:41:55.130Z,163.02
2023-05-22T09:42:54.157Z,157.06
2023-05-22T09:43:55.193Z,157.10
2023-05-22T09:44:55.237Z,164.75
2023-05-22T09:45:55.289Z,156.84
2023-05-22T09:46:55.309Z,164.28
2023-05-22T09:47:54.733Z,150.97
2023-05-22T09:48:54.342Z,103.65
2023-05-22T09:49:54.399Z,103.49
2023-05-22T09:50:55.411Z,125.51
2023-05-22T09:51:55.442Z,107.90
2023-05-22T09:52:55.574Z,93.09
2023-05-22T09:53:55.498Z,93.85
2023-05-22T09:54:55.710Z,119.66
2023-05-22T09:55:54.564Z,115.30
2023-05-22T09:56:55.894Z,125.21
2023-05-22T09:57:54.598Z,129.64
2023-05-22T09:58:54.623Z,132.49
2023-05-22T09:59:54.680Z,134.06
2023-05-22T10:00:55.675Z,131.85
2023-05-22T10:01:55.753Z,134.59
2023-05-22T10:02:54.766Z,134.97
2023-05-22T10:03:54.755Z,138.43
2023-05-22T10:04:54.977Z,149.67
2023-05-22T10:05:55.806Z,140.92
2023-05-22T10:06:55.816Z,132.11
2023-05-22T10:07:54.847Z,121.16
2023-05-22T10:08:54.881Z,131.98
2023-05-22T10:09:54.905Z,145.21
2023-05-22T10:10:55.989Z,150.65
2023-05-22T10:11:56.155Z,145.59
2023-05-22T10:12:55.989Z,148.43
2023-05-22T10:13:56.009Z,146.53
2023-05-22T10:14:56.013Z,156.87
2023-05-22T10:15:56.084Z,149.84
2023-05-22T10:16:55.058Z,148.98
2023-05-22T10:17:55.256Z,148.06
2023-05-22T10:18:56.143Z,162.95
2023-05-22T10:19:55.115Z,150.86
2023-05-22T10:20:56.146Z,149.72
2023-05-22T10:21:56.139Z,144.71
2023-05-22T10:22:56.128Z,143.43
2023-05-22T10:23:56.128Z,136.61
2023-05-22T10:24:56.136Z,146.39
2023-05-22T10:25:55.145Z,145.86
2023-05-22T10:26:56.155Z,152.00
2023-05-22T10:27:55.287Z,152.62
2023-05-22T10:28:56.160Z,159.90
2023-05-22T10:29:56.172Z,158.07
2023-05-22T10:30:56.174Z,150.04
2023-05-22T10:31:56.194Z,144.05
2023-05-22T10:32:55.283Z,143.64
2023-05-22T10:33:55.267Z,137.29
2023-05-22T10:34:56.228Z,139.22
2023-05-22T10:35:56.230Z,138.97
2023-05-22T10:37:09.563Z,133.84
2023-05-22T10:37:56.212Z,133.98
2023-05-22T10:38:55.218Z,136.69
2023-05-22T10:39:56.211Z,138.13
2023-05-22T10:40:55.201Z,143.15
2023-05-22T10:41:55.179Z,135.63
2023-05-22T10:42:56.208Z,135.42
2023-05-22T10:43:56.322Z,124.92
2023-05-22T10:44:55.178Z,107.41
2023-05-22T10:45:56.211Z,35.08
2023-05-22T10:46:56.182Z,0.32
2023-05-22T10:47:56.636Z,26.63
2023-05-22T10:48:56.152Z,76.88
2023-05-22T10:49:56.137Z,109.75
2023-05-22T10:50:56.865Z,106.06
2023-05-22T10:51:56.137Z,131.88
2023-05-22T10:52:55.125Z,132.07
2023-05-22T10:53:56.132Z,111.51
2023-05-22T10:54:56.172Z,110.70
2023-05-22T10:55:55.139Z,119.04
2023-05-22T10:56:55.093Z,128.86
2023-05-22T10:57:55.104Z,121.68
2023-05-22T10:58:56.081Z,114.80
2023-05-22T10:59:56.202Z,120.64
2023-05-22T11:00:55.059Z,115.06
2023-05-22T11:01:55.154Z,123.05
2023-05-22T11:02:58.636Z,116.63
2023-05-22T11:03:56.089Z,96.21
2023-05-22T11:04:55.106Z,105.93
2023-05-22T11:05:56.049Z,106.55
2023-05-22T11:06:55.031Z,119.20
2023-05-22T11:07:56.020Z,122.07
2023-05-22T11:08:56.015Z,117.39
2023-05-22T11:09:56.034Z,112.51
2023-05-22T11:10:56.234Z,112.03
2023-05-22T11:11:55.987Z,108.21
2023-05-22T11:12:55.026Z,111.95
2023-05-22T11:13:55.984Z,107.50
2023-05-22T11:14:54.985Z,106.57
2023-05-22T11:15:55.097Z,113.12
2023-05-22T11:16:55.016Z,117.43
2023-05-22T11:17:56.020Z,118.65
2023-05-22T11:18:55.168Z,118.63
2023-05-22T11:19:54.966Z,121.48
2023-05-22T11:20:55.942Z,118.50
2023-05-22T11:21:54.927Z,123.16
2023-05-22T11:22:55.939Z,126.22
2023-05-22T11:23:55.912Z,130.09
2023-05-22T11:24:55.922Z,126.99
2023-05-22T11:25:55.900Z,130.52
2023-05-22T11:26:55.902Z,139.76
2023-05-22T11:27:55.902Z,133.76
2023-05-22T11:28:55.893Z,137.98
2023-05-22T11:29:54.882Z,134.60
2023-05-22T11:30:55.893Z,132.82
2023-05-22T11:31:54.995Z,136.73
2023-05-22T11:32:55.886Z,138.00
2023-05-22T11:33:55.856Z,138.09
2023-05-22T11:34:55.844Z,131.50
2023-05-22T11:35:54.838Z,135.77
2023-05-22T11:36:55.824Z,135.35
2023-05-22T11:37:55.845Z,130.20
2023-05-22T11:38:54.810Z,139.25
2023-05-22T11:39:55.834Z,138.29
2023-05-22T11:40:55.810Z,136.86
2023-05-22T11:41:55.792Z,140.19
2023-05-22T11:42:55.810Z,135.23
2023-05-22T11:43:54.780Z,136.19
2023-05-22T11:44:54.774Z,136.76
2023-05-22T11:45:54.849Z,137.52
2023-05-22T11:46:54.872Z,134.86
2023-05-22T11:47:55.971Z,135.22
2023-05-22T11:48:55.747Z,132.71
2023-05-22T11:49:54.735Z,141.35
2023-05-22T11:50:54.736Z,143.42
2023-05-22T11:51:55.733Z,137.27
2023-05-22T11:52:55.746Z,134.63
2023-05-22T11:53:55.868Z,136.57
2023-05-22T11:54:55.815Z,141.82
2023-05-22T11:55:54.861Z,138.05
2023-05-22T11:56:55.933Z,137.52
2023-05-22T11:57:56.036Z,138.71
2023-05-22T11:58:55.060Z,143.07
2023-05-22T11:59:56.119Z,143.42
2023-05-22T12:00:56.127Z,143.37
2023-05-22T12:01:55.125Z,142.21
2023-05-22T12:02:56.282Z,141.56
2023-05-22T12:03:55.381Z,138.75
2023-05-22T12:04:55.117Z,143.42
2023-05-22T12:05:55.138Z,141.95
2023-05-22T12:06:56.163Z,138.16
2023-05-22T12:07:56.641Z,140.77
2023-05-22T12:08:56.123Z,138.09
2023-05-22T12:09:55.132Z,141.23
2023-05-22T12:10:56.113Z,145.56
2023-05-22T12:11:56.128Z,143.23
2023-05-22T12:12:55.120Z,140.98
2023-05-22T12:13:55.124Z,142.31
2023-05-22T12:14:56.116Z,142.69
2023-05-22T12:15:56.117Z,145.28
2023-05-22T12:16:56.237Z,137.57
2023-05-22T12:17:56.241Z,144.52
2023-05-22T12:18:56.180Z,139.23
2023-05-22T12:19:56.283Z,144.72
2023-05-22T12:20:55.193Z,142.83
2023-05-22T12:21:56.193Z,143.85
2023-05-22T12:22:55.214Z,142.11
2023-05-22T12:23:56.225Z,142.46
2023-05-22T12:24:56.229Z,144.54
2023-05-22T12:25:56.230Z,147.20
2023-05-22T12:26:56.229Z,142.83
2023-05-22T12:27:55.286Z,142.17
2023-05-22T12:28:55.257Z,144.39
2023-05-22T12:29:55.281Z,142.23
2023-05-22T12:30:55.290Z,145.08
2023-05-22T12:31:55.329Z,143.97
2023-05-22T12:32:56.352Z,142.88
2023-05-22T12:33:56.339Z,144.27
2023-05-22T12:34:55.348Z,143.93
2023-05-22T12:35:55.470Z,146.17
2023-05-22T12:36:55.355Z,143.92
2023-05-22T12:37:56.386Z,143.69
2023-05-22T12:38:56.434Z,144.86
2023-05-22T12:39:56.429Z,144.25
2023-05-22T12:40:55.466Z,144.51
2023-05-22T12:41:56.478Z,144.47
2023-05-22T12:42:55.493Z,143.60
2023-05-22T12:43:56.512Z,142.43
2023-05-22T12:44:56.601Z,140.99
2023-05-22T12:45:56.558Z,138.66